Main page
METAR-TAF:

METAR-TAF

Airports :

Kilimanjaro International Airport

Kilimanjaro, Tanzania

latitude: 03-25S, longitude: 037-04E, elevation: 891 m

Current weather observation

The report was made 1 hour and 12 minutes ago, at 05:00 UTC
Calm wind
Temperature 21°C
Humidity 94%
Pressure 1017 hPa
Visibility 10 km or more
Scattered clouds at a height of 2400 ft

METAR: HTKJ 080500Z 00000KT 9999 SCT024 21/20 Q1017 NOSIG

Time: 09:12 (06:12 UTC)

Forecast

The report was made 1 hour and 12 minutes ago, at 05:00 UTC
Forecast valid from 08 at 06 UTC to 09 at 06 UTC
Wind 10 kt from the East
Visibility 10 km or more
Scattered clouds at a height of 3000 ft
Becoming
from 08 at 10 UTC to 08 at 11 UTC
Few clouds at a height of 3500 ft, Cumulonimbus.
Broken clouds at a height of 3600 ft
Becoming
from 08 at 15 UTC to 08 at 16 UTC
Scattered clouds at a height of 3000 ft

TAF: HTKJ 080500Z 0806/0906 09010KT 9999 SCT030 BECMG 0810/0811 FEW035CB BKN036 BECMG 0815/0816 SCT030

Weather observations and forecasts of more than 4000 airports (METAR and TAF reports).

The available stations are represented by yellow and red dots on the map.

Hover mouse over dot to see the name of the station.

Then click to see weather observations and forecasts.

To change the map : click on the green buttons with a black cross to zoom in, on the green button with a dash to zoom out, or on the green arrows for adjacent maps.


METAR-TAF: